createdAt,value
2022-09-22T00:01:20.586Z,18.73
2022-09-22T00:03:50.307Z,14.00
2022-09-22T00:06:26.293Z,12.10
2022-09-22T00:08:56.101Z,13.57
2022-09-22T00:11:29.147Z,11.27
2022-09-22T00:13:59.958Z,12.87
2022-09-22T00:16:42.580Z,11.87
2022-09-22T00:19:12.934Z,11.80
2022-09-22T00:21:39.939Z,11.50
2022-09-22T00:24:08.064Z,10.50
2022-09-22T00:26:36.714Z,13.17
2022-09-22T00:29:04.741Z,10.80
2022-09-22T00:31:31.669Z,10.53
2022-09-22T00:33:58.679Z,12.73
2022-09-22T00:36:27.957Z,21.60
2022-09-22T00:38:56.867Z,10.50
2022-09-22T00:41:30.182Z,9.53
2022-09-22T00:44:21.783Z,10.83
2022-09-22T00:46:53.665Z,8.03
2022-09-22T00:49:39.296Z,8.83
2022-09-22T00:52:06.997Z,10.43
2022-09-22T00:54:35.064Z,12.87
2022-09-22T00:57:19.280Z,10.47
2022-09-22T00:59:49.388Z,9.97
2022-09-22T01:02:16.674Z,12.17
2022-09-22T01:04:44.841Z,10.60
2022-09-22T01:07:13.141Z,14.73
2022-09-22T01:09:40.031Z,14.80
2022-09-22T01:12:08.331Z,10.87
2022-09-22T01:15:36.665Z,12.57
2022-09-22T01:18:38.541Z,13.90
2022-09-22T01:21:20.488Z,10.20
2022-09-22T01:24:18.843Z,9.03
2022-09-22T01:27:16.931Z,9.77
2022-09-22T01:30:02.936Z,10.30
2022-09-22T01:36:27.829Z,10.70
2022-09-22T01:39:13.335Z,11.90
2022-09-22T01:42:07.850Z,11.47
2022-09-22T01:44:53.154Z,10.47
2022-09-22T01:47:40.718Z,10.77
2022-09-22T01:50:20.648Z,14.13
2022-09-22T01:52:48.300Z,10.23
2022-09-22T01:55:28.895Z,12.53
2022-09-22T01:58:00.631Z,12.63
2022-09-22T02:00:28.249Z,11.07
2022-09-22T02:03:23.355Z,18.50
2022-09-22T02:06:04.283Z,11.87
2022-09-22T02:08:37.857Z,16.47
2022-09-22T02:11:11.483Z,17.33
2022-09-22T02:13:38.397Z,18.67
2022-09-22T02:16:07.012Z,21.40
2022-09-22T02:18:45.248Z,13.13
2022-09-22T02:21:13.718Z,13.33
2022-09-22T02:23:41.151Z,12.17
2022-09-22T02:26:09.212Z,13.17
2022-09-22T02:28:39.147Z,14.73
2022-09-22T02:31:19.961Z,15.00
2022-09-22T02:33:51.162Z,14.70
2022-09-22T02:37:06.124Z,29.10
2022-09-22T02:40:04.244Z,12.40
2022-09-22T02:42:52.420Z,14.63
2022-09-22T02:45:22.678Z,18.50
2022-09-22T02:47:57.063Z,17.73
2022-09-22T02:50:27.120Z,14.33
2022-09-22T02:52:59.015Z,14.80
2022-09-22T02:55:25.888Z,16.20
2022-09-22T02:57:52.831Z,21.87
2022-09-22T03:00:19.868Z,17.27
2022-09-22T03:02:46.750Z,15.17
2022-09-22T03:05:13.769Z,19.00
2022-09-22T03:07:43.533Z,16.50
2022-09-22T03:10:10.734Z,17.80
2022-09-22T03:13:02.499Z,18.23
2022-09-22T03:15:29.996Z,18.17
2022-09-22T03:17:56.973Z,24.63
2022-09-22T03:20:23.854Z,22.50
2022-09-22T03:22:50.740Z,23.60
2022-09-22T03:25:17.790Z,21.87
2022-09-22T03:27:44.742Z,16.47
2022-09-22T03:30:12.112Z,18.80
2022-09-22T03:32:38.997Z,20.47
2022-09-22T03:35:07.221Z,16.93
2022-09-22T03:37:35.068Z,19.20
2022-09-22T03:40:03.081Z,20.53
2022-09-22T03:42:30.133Z,22.10
2022-09-22T03:44:57.062Z,20.47
2022-09-22T03:47:24.081Z,17.70
2022-09-22T03:49:50.996Z,19.73
2022-09-22T03:52:17.802Z,15.77
2022-09-22T03:54:44.714Z,17.37
2022-09-22T03:57:11.872Z,20.10
2022-09-22T03:59:38.818Z,16.27
2022-09-22T04:02:05.932Z,17.17
2022-09-22T04:04:32.920Z,17.50
2022-09-22T04:07:04.718Z,19.33
2022-09-22T04:09:33.696Z,16.83
2022-09-22T04:12:01.036Z,17.17
2022-09-22T04:14:28.081Z,18.13
2022-09-22T04:16:55.092Z,16.60
2022-09-22T04:19:22.851Z,22.13
2022-09-22T04:21:54.636Z,21.70
2022-09-22T04:24:24.716Z,23.57
2022-09-22T04:27:18.115Z,18.87
2022-09-22T04:29:38.761Z,17.83
2022-09-22T04:32:06.016Z,17.30
2022-09-22T04:34:32.864Z,26.73
2022-09-22T04:36:59.744Z,17.37
2022-09-22T04:39:28.751Z,15.80
2022-09-22T04:41:55.999Z,21.10
2022-09-22T04:44:22.881Z,17.77
2022-09-22T04:46:50.427Z,17.37
2022-09-22T04:49:18.531Z,17.83
2022-09-22T04:51:45.659Z,19.50
2022-09-22T04:54:14.364Z,19.50
2022-09-22T04:56:42.672Z,21.83
2022-09-22T04:59:10.127Z,16.40
2022-09-22T05:01:37.243Z,15.83
2022-09-22T05:04:04.544Z,19.50
2022-09-22T05:06:31.507Z,16.83
2022-09-22T05:08:58.655Z,18.00
2022-09-22T05:11:25.602Z,17.17
2022-09-22T05:13:52.586Z,19.17
2022-09-22T05:16:19.649Z,20.43
2022-09-22T05:18:46.971Z,20.60
2022-09-22T05:21:13.838Z,17.73
2022-09-22T05:23:40.775Z,17.40
2022-09-22T05:26:07.705Z,17.63
2022-09-22T05:28:34.749Z,16.47
2022-09-22T05:31:01.577Z,17.23
2022-09-22T05:33:28.736Z,21.03
2022-09-22T05:35:55.738Z,18.13
2022-09-22T05:38:22.767Z,18.60
2022-09-22T05:40:49.685Z,27.67
2022-09-22T05:43:16.719Z,19.20
2022-09-22T05:45:44.788Z,21.57
2022-09-22T05:48:11.704Z,29.10
2022-09-22T05:50:38.609Z,33.20
2022-09-22T05:53:07.955Z,42.50
2022-09-22T05:55:35.358Z,39.27
2022-09-22T05:58:02.805Z,34.80
2022-09-22T06:00:29.957Z,35.83
2022-09-22T06:02:57.138Z,35.80
2022-09-22T06:05:24.258Z,39.60
2022-09-22T06:08:00.878Z,21.63
2022-09-22T06:10:28.531Z,24.03
2022-09-22T06:13:06.364Z,21.07
2022-09-22T06:15:35.791Z,18.83
2022-09-22T06:18:06.978Z,16.87
2022-09-22T06:20:34.908Z,17.73
2022-09-22T06:23:02.147Z,18.23
2022-09-22T06:25:29.713Z,10.80
2022-09-22T06:28:07.726Z,10.10
2022-09-22T06:30:36.730Z,8.20
2022-09-22T06:33:03.956Z,6.53
2022-09-22T06:35:37.628Z,12.03
2022-09-22T06:38:08.393Z,5.03
2022-09-22T06:40:36.569Z,4.70
2022-09-22T06:43:10.593Z,15.03
2022-09-22T06:45:40.282Z,6.20
2022-09-22T06:48:10.109Z,6.53
2022-09-22T06:50:38.344Z,9.13
2022-09-22T06:53:07.844Z,8.87
2022-09-22T06:55:36.045Z,18.60
2022-09-22T06:58:03.207Z,4.57
2022-09-22T07:00:33.190Z,4.67
2022-09-22T07:03:09.678Z,5.80
2022-09-22T07:05:37.351Z,4.37
2022-09-22T07:08:05.257Z,3.93
2022-09-22T07:10:37.847Z,5.27
2022-09-22T07:13:05.690Z,4.43
2022-09-22T07:15:34.247Z,4.87
2022-09-22T07:18:01.115Z,11.57
2022-09-22T07:20:28.978Z,8.90
2022-09-22T07:23:00.842Z,3.80
2022-09-22T07:25:28.971Z,6.17
2022-09-22T07:27:57.887Z,4.40
2022-09-22T07:30:26.312Z,3.43
2022-09-22T07:32:53.340Z,6.50
2022-09-22T07:35:20.282Z,3.63
2022-09-22T07:37:47.224Z,4.10
2022-09-22T07:40:14.732Z,3.80
2022-09-22T07:42:41.697Z,3.20
2022-09-22T07:45:12.833Z,6.80
2022-09-22T07:47:58.826Z,2.97
2022-09-22T07:50:25.759Z,4.43
2022-09-22T07:52:53.844Z,4.47
2022-09-22T07:55:25.300Z,3.07
2022-09-22T07:58:00.152Z,4.90
2022-09-22T08:00:33.144Z,3.60
2022-09-22T08:03:01.567Z,2.37
2022-09-22T08:05:29.474Z,8.03
2022-09-22T08:08:00.835Z,3.93
2022-09-22T08:10:27.846Z,1.90
2022-09-22T08:12:57.867Z,2.30
2022-09-22T08:15:27.366Z,5.50
2022-09-22T08:18:02.018Z,6.63
2022-09-22T08:20:29.841Z,4.23
2022-09-22T08:23:03.281Z,2.50
2022-09-22T08:25:30.894Z,6.10
2022-09-22T08:28:00.382Z,2.90
2022-09-22T08:30:27.349Z,1.53
2022-09-22T08:32:54.305Z,8.10
2022-09-22T08:35:21.271Z,12.73
2022-09-22T08:37:50.805Z,3.13
2022-09-22T08:40:23.878Z,3.03
2022-09-22T08:42:55.664Z,2.80
2022-09-22T08:45:33.518Z,3.40
2022-09-22T08:48:29.528Z,1.80
2022-09-22T08:51:20.168Z,2.73
2022-09-22T08:53:50.528Z,1.33
2022-09-22T08:56:36.944Z,2.37
2022-09-22T08:59:18.788Z,2.57
2022-09-22T09:02:24.439Z,1.60
2022-09-22T09:05:30.030Z,3.67
2022-09-22T09:08:21.907Z,4.70
2022-09-22T09:11:26.405Z,11.73
2022-09-22T09:14:52.279Z,2.23
2022-09-22T09:17:28.981Z,1.60
2022-09-22T09:20:39.031Z,2.23
2022-09-22T09:23:19.276Z,1.27
2022-09-22T09:25:53.098Z,2.37
2022-09-22T09:28:31.867Z,2.40
2022-09-22T09:31:30.850Z,1.93
2022-09-22T09:34:18.020Z,2.33
2022-09-22T09:36:52.947Z,3.70
2022-09-22T09:39:32.375Z,2.43
2022-09-22T09:42:01.448Z,11.20
2022-09-22T09:44:39.094Z,2.40
2022-09-22T09:47:24.739Z,1.60
2022-09-22T09:49:53.073Z,1.33
2022-09-22T09:52:21.002Z,8.63
2022-09-22T09:54:48.687Z,3.20
2022-09-22T09:57:17.498Z,4.23
2022-09-22T10:00:10.325Z,1.30
2022-09-22T10:02:49.793Z,1.80
2022-09-22T10:05:27.104Z,3.83
2022-09-22T10:08:21.291Z,1.93
2022-09-22T10:10:49.005Z,3.07
2022-09-22T10:13:23.288Z,0.90
2022-09-22T10:16:20.572Z,1.33
2022-09-22T10:18:48.990Z,1.10
2022-09-22T10:21:23.340Z,0.90
2022-09-22T10:23:52.955Z,1.53
2022-09-22T10:26:30.867Z,1.30
2022-09-22T10:29:21.154Z,1.03
2022-09-22T10:32:15.325Z,1.00
2022-09-22T10:34:51.233Z,1.33
2022-09-22T10:37:25.034Z,2.57
2022-09-22T10:40:01.926Z,0.90
2022-09-22T10:42:45.723Z,2.90
2022-09-22T10:45:19.247Z,2.80
2022-09-22T10:48:34.158Z,1.00
2022-09-22T10:51:45.974Z,1.43
2022-09-22T10:54:59.219Z,1.00
2022-09-22T10:58:14.965Z,1.33
2022-09-22T11:00:42.514Z,1.00
2022-09-22T11:03:47.504Z,3.57
2022-09-22T11:06:52.729Z,1.63
2022-09-22T11:10:02.679Z,0.90
2022-09-22T11:12:35.425Z,2.37
2022-09-22T11:15:34.145Z,1.00
2022-09-22T11:18:44.393Z,1.63
2022-09-22T12:05:53.326Z,1.37
2022-09-22T12:08:23.737Z,3.63
2022-09-22T12:10:52.071Z,2.37
2022-09-22T12:13:28.171Z,4.63
2022-09-22T12:16:25.216Z,1.30
2022-09-22T12:19:01.433Z,1.87
2022-09-22T12:22:13.060Z,2.33
2022-09-22T12:24:40.055Z,1.60
2022-09-22T12:27:12.827Z,1.23
2022-09-22T12:29:40.059Z,2.90
2022-09-22T12:32:20.340Z,4.43
2022-09-22T12:34:47.246Z,2.43
2022-09-22T12:37:31.915Z,1.00
2022-09-22T12:40:23.872Z,2.80
2022-09-22T12:42:52.944Z,1.20
2022-09-22T12:45:37.935Z,2.40
2022-09-22T12:48:13.711Z,3.50
2022-09-22T12:50:42.676Z,1.30
2022-09-22T12:53:27.516Z,2.10
2022-09-22T12:55:56.629Z,1.00
2022-09-22T12:58:43.787Z,2.27
2022-09-22T13:01:32.733Z,2.33
2022-09-22T13:04:18.685Z,1.53
2022-09-22T13:06:56.155Z,3.17
2022-09-22T13:09:26.041Z,1.57
2022-09-22T13:12:31.138Z,0.80
2022-09-22T13:15:15.065Z,1.00
2022-09-22T13:17:50.309Z,0.83
2022-09-22T13:20:33.138Z,0.80
2022-09-22T13:23:21.217Z,0.97
2022-09-22T13:25:50.762Z,0.90
2022-09-22T13:28:24.093Z,1.03
2022-09-22T13:31:15.044Z,1.00
2022-09-22T13:33:43.065Z,2.60
2022-09-22T13:36:17.615Z,0.90
2022-09-22T13:38:50.983Z,1.33
2022-09-22T13:41:24.184Z,0.90
2022-09-22T13:43:59.015Z,1.00
2022-09-22T13:46:47.477Z,3.53
2022-09-22T13:49:35.949Z,1.73
2022-09-22T13:52:09.513Z,2.40
2022-09-22T13:54:39.031Z,1.63
2022-09-22T13:57:16.708Z,3.60
2022-09-22T13:59:43.807Z,1.87
2022-09-22T14:02:13.511Z,5.80
2022-09-22T14:04:56.907Z,0.90
2022-09-22T14:07:27.713Z,1.00
2022-09-22T14:09:56.105Z,1.60
2022-09-22T14:12:23.604Z,1.17
2022-09-22T14:14:50.999Z,0.90
2022-09-22T14:17:36.893Z,1.47
2022-09-22T14:20:08.619Z,1.10
2022-09-22T14:22:43.130Z,1.27
2022-09-22T14:25:20.419Z,1.27
2022-09-22T14:27:57.973Z,2.70
2022-09-22T14:30:30.046Z,1.00
2022-09-22T14:33:03.883Z,1.10
2022-09-22T14:35:33.678Z,4.80
2022-09-22T14:38:11.608Z,1.70
2022-09-22T14:40:54.468Z,2.27
2022-09-22T14:43:37.945Z,9.47
2022-09-22T14:46:23.043Z,1.30
2022-09-22T14:48:50.467Z,0.93
2022-09-22T14:51:21.781Z,1.13
2022-09-22T14:54:03.954Z,1.40
2022-09-22T14:56:34.183Z,1.20
2022-09-22T14:59:27.667Z,3.20
2022-09-22T15:02:15.014Z,1.40
2022-09-22T15:04:48.687Z,1.33
2022-09-22T15:07:29.191Z,1.30
2022-09-22T15:10:02.591Z,2.17
2022-09-22T15:12:50.022Z,2.10
2022-09-22T15:15:29.135Z,1.80
2022-09-22T15:18:16.226Z,1.37
2022-09-22T15:20:57.322Z,2.40
2022-09-22T15:23:32.355Z,3.60
2022-09-22T15:26:05.039Z,1.20
2022-09-22T15:28:38.041Z,1.50
2022-09-22T15:31:05.608Z,1.87
2022-09-22T15:33:33.066Z,1.20
2022-09-22T15:36:10.212Z,1.00
2022-09-22T15:38:38.228Z,2.70
2022-09-22T15:41:05.814Z,3.63
2022-09-22T15:43:36.568Z,1.00
2022-09-22T15:46:06.450Z,1.90
2022-09-22T15:48:39.120Z,1.03
2022-09-22T15:51:09.754Z,3.47
2022-09-22T15:53:37.973Z,5.33
2022-09-22T15:56:07.567Z,1.60
2022-09-22T15:58:37.311Z,1.00
2022-09-22T16:01:05.810Z,1.27
2022-09-22T16:03:41.272Z,1.00
2022-09-22T16:06:12.492Z,1.63
2022-09-22T16:08:42.354Z,1.00
2022-09-22T16:11:19.777Z,2.27
2022-09-22T16:13:58.925Z,1.00
2022-09-22T16:16:29.580Z,1.20
2022-09-22T16:18:57.373Z,1.57
2022-09-22T16:21:35.716Z,1.10
2022-09-22T16:24:09.563Z,1.93
2022-09-22T16:26:39.235Z,1.17
2022-09-22T16:29:07.551Z,2.53
2022-09-22T16:31:35.484Z,1.00
2022-09-22T16:34:04.743Z,2.30
2022-09-22T16:36:34.589Z,1.10
2022-09-22T16:39:02.699Z,2.03
2022-09-22T16:41:32.125Z,1.77
2022-09-22T16:44:00.063Z,1.37
2022-09-22T16:46:32.406Z,3.97
2022-09-22T16:49:20.087Z,1.47
2022-09-22T16:51:54.245Z,1.20
2022-09-22T16:54:21.891Z,1.60
2022-09-22T16:56:50.666Z,3.30
2022-09-22T16:59:19.963Z,2.70
2022-09-22T17:01:47.144Z,2.17
2022-09-22T17:04:16.498Z,4.40
2022-09-22T17:06:44.075Z,4.40
2022-09-22T17:09:11.875Z,3.90
2022-09-22T17:11:42.111Z,3.20
2022-09-22T17:14:13.684Z,4.70
2022-09-22T17:16:52.170Z,65.10
2022-09-22T17:19:21.761Z,91.23
2022-09-22T17:21:52.954Z,16.47
2022-09-22T17:24:19.857Z,14.30
2022-09-22T17:26:52.744Z,5.30
2022-09-22T17:29:28.657Z,4.83
2022-09-22T17:31:57.933Z,2.07
2022-09-22T17:34:29.326Z,5.40
2022-09-22T17:36:57.442Z,3.60
2022-09-22T17:39:26.405Z,3.00
2022-09-22T17:41:53.856Z,5.73
2022-09-22T17:44:21.706Z,2.60
2022-09-22T17:47:09.250Z,2.07
2022-09-22T17:49:54.582Z,5.37
2022-09-22T17:52:33.800Z,3.40
2022-09-22T17:55:09.667Z,2.00
2022-09-22T17:57:42.093Z,4.00
2022-09-22T18:00:21.348Z,4.50
2022-09-22T18:02:49.905Z,5.10
2022-09-22T18:05:19.744Z,11.07
2022-09-22T18:07:50.484Z,7.23
2022-09-22T18:10:52.601Z,5.57
2022-09-22T18:13:19.965Z,6.07
2022-09-22T18:15:46.981Z,10.63
2022-09-22T18:18:13.963Z,4.90
2022-09-22T18:20:41.146Z,6.50
2022-09-22T18:23:08.603Z,4.47
2022-09-22T18:25:35.778Z,7.10
2022-09-22T18:28:04.011Z,13.50
2022-09-22T18:30:32.074Z,9.77
2022-09-22T18:32:59.029Z,8.53
2022-09-22T18:35:28.080Z,8.20
2022-09-22T18:37:55.022Z,11.03
2022-09-22T18:40:22.381Z,6.13
2022-09-22T18:42:50.295Z,15.90
2022-09-22T18:45:17.488Z,22.73
2022-09-22T18:47:44.410Z,19.63
2022-09-22T18:50:12.270Z,20.97
2022-09-22T18:52:42.829Z,15.60
2022-09-22T18:55:11.714Z,13.13
2022-09-22T18:57:38.658Z,23.30
2022-09-22T19:00:06.556Z,11.53
2022-09-22T19:02:34.702Z,9.97
2022-09-22T19:05:01.635Z,19.73
2022-09-22T19:07:42.040Z,16.70
2022-09-22T19:10:18.906Z,9.87
2022-09-22T19:12:46.188Z,12.53
2022-09-22T19:15:16.741Z,8.80
2022-09-22T19:17:46.097Z,10.37
2022-09-22T19:20:15.799Z,16.50
2022-09-22T19:22:43.172Z,31.93
2022-09-22T19:25:11.088Z,19.97
2022-09-22T19:27:39.810Z,24.60
2022-09-22T19:30:11.533Z,9.73
2022-09-22T19:32:39.417Z,15.73
2022-09-22T19:35:08.769Z,14.13
2022-09-22T19:37:37.180Z,11.47
2022-09-22T19:40:06.044Z,9.67
2022-09-22T19:42:37.996Z,16.10
2022-09-22T19:45:07.248Z,15.80
2022-09-22T19:47:34.633Z,16.97
2022-09-22T19:50:01.596Z,13.73
2022-09-22T19:52:28.498Z,15.57
2022-09-22T19:54:55.469Z,16.10
2022-09-22T19:57:22.427Z,18.87
2022-09-22T19:59:49.332Z,21.77
2022-09-22T20:02:16.425Z,15.07
2022-09-22T20:04:43.429Z,13.57
2022-09-22T20:07:10.844Z,23.73
2022-09-22T20:09:37.904Z,11.93
2022-09-22T20:12:05.230Z,15.90
2022-09-22T20:14:32.577Z,28.03
2022-09-22T20:17:03.188Z,19.30
2022-09-22T20:19:32.560Z,19.40
2022-09-22T20:22:20.189Z,17.80
2022-09-22T20:24:57.609Z,18.57
2022-09-22T20:27:32.793Z,22.17
2022-09-22T20:30:01.080Z,25.07
2022-09-22T20:32:31.721Z,25.60
2022-09-22T20:34:58.910Z,22.90
2022-09-22T20:37:27.824Z,21.97
2022-09-22T20:39:57.898Z,22.20
2022-09-22T20:42:24.767Z,19.57
2022-09-22T20:44:52.760Z,17.40
2022-09-22T20:47:26.031Z,17.53
2022-09-22T20:49:53.227Z,17.23
2022-09-22T20:52:21.820Z,15.47
2022-09-22T20:54:50.244Z,18.27
2022-09-22T20:57:19.247Z,26.00
2022-09-22T20:59:47.654Z,25.90
2022-09-22T21:02:15.272Z,24.17
2022-09-22T21:04:42.630Z,28.40
2022-09-22T21:07:11.698Z,16.07
2022-09-22T21:09:56.874Z,15.37
2022-09-22T21:12:30.059Z,12.27
2022-09-22T21:14:58.433Z,23.30
2022-09-22T21:17:27.556Z,22.93
2022-09-22T21:19:57.203Z,25.67
2022-09-22T21:22:24.943Z,18.70
2022-09-22T21:24:52.649Z,23.70
2022-09-22T21:27:20.097Z,20.30
2022-09-22T21:29:47.105Z,14.97
2022-09-22T21:32:14.556Z,15.53
2022-09-22T21:34:42.995Z,12.50
2022-09-22T21:37:10.079Z,13.50
2022-09-22T21:39:36.923Z,13.57
2022-09-22T21:42:04.146Z,9.47
2022-09-22T21:44:31.138Z,17.00
2022-09-22T21:46:58.068Z,20.53
2022-09-22T21:49:24.981Z,20.93
2022-09-22T21:51:51.961Z,22.87
2022-09-22T21:54:19.701Z,23.87
2022-09-22T21:56:46.889Z,24.63
2022-09-22T21:59:14.235Z,19.23
2022-09-22T22:01:42.674Z,23.53
2022-09-22T22:04:10.499Z,22.10
2022-09-22T22:06:45.812Z,25.13
2022-09-22T22:09:16.035Z,22.03
2022-09-22T22:11:45.810Z,23.10
2022-09-22T22:14:13.889Z,13.50
2022-09-22T22:16:43.812Z,15.40
2022-09-22T22:19:17.736Z,16.13
2022-09-22T22:21:45.266Z,16.97
2022-09-22T22:24:31.557Z,12.50
2022-09-22T22:27:06.656Z,12.90
2022-09-22T22:29:34.973Z,8.60
2022-09-22T22:32:03.711Z,10.60
2022-09-22T22:34:30.612Z,9.50
2022-09-22T22:37:00.911Z,14.07
2022-09-22T22:39:27.802Z,8.27
2022-09-22T22:41:55.356Z,8.30
2022-09-22T22:44:22.815Z,8.90
2022-09-22T22:46:50.237Z,8.20
2022-09-22T22:49:17.483Z,8.47
2022-09-22T22:51:44.442Z,10.57
2022-09-22T22:54:12.516Z,7.43
2022-09-22T22:56:42.390Z,10.50
2022-09-22T22:59:11.312Z,7.93
2022-09-22T23:01:38.637Z,10.93
2022-09-22T23:04:07.823Z,11.60
2022-09-22T23:06:41.867Z,10.50
2022-09-22T23:09:12.921Z,10.27
2022-09-22T23:11:41.382Z,8.33
2022-09-22T23:14:11.482Z,9.30
2022-09-22T23:16:44.337Z,7.73
2022-09-22T23:19:13.980Z,8.40
2022-09-22T23:21:41.002Z,10.90
2022-09-22T23:24:08.812Z,8.47
2022-09-22T23:26:37.612Z,9.17
2022-09-22T23:29:05.066Z,9.30
2022-09-22T23:31:32.430Z,13.10
2022-09-22T23:33:59.465Z,15.43
2022-09-22T23:36:28.448Z,10.00
2022-09-22T23:39:04.302Z,10.77
2022-09-22T23:41:36.382Z,15.63
2022-09-22T23:44:04.036Z,12.37
2022-09-22T23:46:31.355Z,12.07
2022-09-22T23:49:00.335Z,9.70
2022-09-22T23:51:27.623Z,11.10
2022-09-22T23:53:54.652Z,9.83
2022-09-22T23:56:21.607Z,8.47
2022-09-22T23:58:48.964Z,9.23
